Time;durP1;ratioP1;P1;durP2;ratioP2;P2;SDS_P1;SDS_P2;PMS_P1;PMS_P2;Temp;Humidity;BMP_temperature;BMP_pressure;BME280_temperature;BME280_humidity;BME280_pressure;Samples;Min_cycle;Max_cycle;Signal;HPM_P1;HPM_P2
2023/03/02 00:00:41;;;;;;;29.60;18.13;;;;;-1.40;93972.00;;;;7390948;19;20156;-77
2023/03/02 00:03:17;;;;;;;36.93;20.47;;;;;-1.50;93971.00;;;;7391209;19;20168;-77
2023/03/02 00:05:46;;;;;;;32.23;19.87;;;;;-1.40;93967.00;;;;7389872;19;20156;-76
2023/03/02 00:08:21;;;;;;;36.13;20.37;;;;;-1.40;93967.00;;;;7395201;19;20611;-79
2023/03/02 00:10:49;;;;;;;39.20;21.03;;;;;-1.50;93973.00;;;;7392892;19;20503;-77
2023/03/02 00:13:23;;;;;;;33.77;19.50;;;;;-1.60;93964.00;;;;7392349;19;20636;-77
2023/03/02 00:15:50;;;;;;;34.50;20.23;;;;;-1.60;93963.00;;;;7394270;19;20996;-80
2023/03/02 00:18:26;;;;;;;40.70;18.93;;;;;-1.80;93966.00;;;;7390792;19;20144;-76
2023/03/02 00:21:01;;;;;;;41.10;20.77;;;;;-1.70;93952.00;;;;7395517;19;20191;-77
2023/03/02 00:23:28;;;;;;;33.90;20.30;;;;;-1.70;93958.00;;;;7397807;19;20140;-77
2023/03/02 00:26:06;;;;;;;38.70;20.23;;;;;-1.80;93955.00;;;;7393961;19;20151;-77
2023/03/02 00:28:34;;;;;;;39.27;21.83;;;;;-1.80;93949.00;;;;7391542;19;20478;-77
2023/03/02 00:31:08;;;;;;;35.23;19.83;;;;;-1.70;93949.00;;;;7391784;19;20133;-78
2023/03/02 00:33:35;;;;;;;40.23;21.67;;;;;-1.70;93950.00;;;;7392228;19;20167;-77
2023/03/02 00:36:19;;;;;;;37.30;21.20;;;;;-1.70;93941.00;;;;7392290;19;20579;-77
2023/03/02 00:38:54;;;;;;;37.77;21.80;;;;;-1.60;93945.00;;;;7392197;19;20511;-77
2023/03/02 00:41:28;;;;;;;40.23;21.63;;;;;-1.60;93943.00;;;;7386731;19;20167;-77
2023/03/02 00:43:55;;;;;;;37.60;22.07;;;;;-1.70;93940.00;;;;7389006;19;20159;-78
2023/03/02 00:46:29;;;;;;;36.33;21.17;;;;;-1.70;93941.00;;;;7386493;19;20209;-78
2023/03/02 00:48:58;;;;;;;35.80;20.43;;;;;-1.70;93945.00;;;;7394078;19;20877;-77
2023/03/02 00:51:38;;;;;;;37.10;22.53;;;;;-1.70;93930.00;;;;7390835;19;20156;-77
2023/03/02 00:54:12;;;;;;;41.10;22.30;;;;;-1.70;93933.00;;;;7392062;19;20140;-78
2023/03/02 00:56:47;;;;;;;34.97;21.07;;;;;-1.70;93932.00;;;;7391425;19;20132;-77
2023/03/02 00:59:25;;;;;;;40.27;21.87;;;;;-1.80;93935.00;;;;7392437;19;20175;-77
2023/03/02 01:02:00;;;;;;;37.77;22.23;;;;;-1.70;93932.00;;;;7390868;19;20755;-77
2023/03/02 01:04:43;;;;;;;42.63;23.33;;;;;-1.70;93932.00;;;;7391448;19;20159;-77
2023/03/02 01:07:19;;;;;;;37.93;21.90;;;;;-1.80;93927.00;;;;7390355;19;20190;-77
2023/03/02 01:09:53;;;;;;;42.93;21.63;;;;;-1.80;93924.00;;;;7394080;19;20532;-78
2023/03/02 01:12:21;;;;;;;40.40;23.50;;;;;-1.80;93929.00;;;;7392576;19;20166;-77
2023/03/02 01:14:56;;;;;;;40.33;22.87;;;;;-1.80;93919.00;;;;7389766;19;20764;-77
2023/03/02 01:17:32;;;;;;;40.77;23.17;;;;;-1.90;93920.00;;;;7389763;19;20140;-77
2023/03/02 01:20:07;;;;;;;41.33;23.87;;;;;-2.00;93911.00;;;;7391595;19;20613;-76
2023/03/02 01:22:43;;;;;;;39.87;22.70;;;;;-2.00;93913.00;;;;7394325;19;20132;-78
2023/03/02 01:25:14;;;;;;;42.50;23.27;;;;;-2.00;93919.00;;;;7391378;19;20136;-77
2023/03/02 01:27:47;;;;;;;41.30;23.63;;;;;-2.00;93927.00;;;;7391607;19;20166;-77
2023/03/02 01:30:21;;;;;;;41.77;23.23;;;;;-2.00;93912.00;;;;7391174;19;20222;-76
2023/03/02 01:32:55;;;;;;;44.20;23.00;;;;;-2.10;93906.00;;;;7393092;19;20211;-77
2023/03/02 01:35:30;;;;;;;40.40;23.43;;;;;-2.20;93909.00;;;;7387366;19;20499;-77
2023/03/02 01:37:57;;;;;;;44.97;22.93;;;;;-2.20;93911.00;;;;7391471;19;20432;-76
2023/03/02 01:40:32;;;;;;;38.83;22.87;;;;;-2.10;93906.00;;;;7392168;19;20647;-77
2023/03/02 01:43:12;;;;;;;41.83;24.10;;;;;-2.30;93899.00;;;;7391196;19;20163;-77
2023/03/02 01:45:52;;;;;;;44.07;24.57;;;;;-2.30;93901.00;;;;7385381;19;20167;-77
2023/03/02 01:48:48;;;;;;;46.53;23.60;;;;;-2.30;93892.00;;;;7391783;19;20136;-77
2023/03/02 01:51:31;;;;;;;43.17;23.00;;;;;-2.40;93888.00;;;;7385616;19;20176;-77
2023/03/02 01:54:06;;;;;;;47.77;25.33;;;;;-2.30;93893.00;;;;7392334;19;20147;-77
2023/03/02 01:56:40;;;;;;;44.70;24.60;;;;;-2.30;93886.00;;;;7389319;19;20138;-76
2023/03/02 01:59:15;;;;;;;52.03;26.20;;;;;-2.20;93885.00;;;;7389393;19;20121;-76
2023/03/02 02:01:54;;;;;;;49.07;26.67;;;;;-2.20;93879.00;;;;7393437;19;20133;-74
2023/03/02 02:04:24;;;;;;;46.50;25.67;;;;;-2.20;93880.00;;;;7391777;19;20156;-75
2023/03/02 02:07:07;;;;;;;47.63;26.03;;;;;-2.30;93876.00;;;;7389527;19;20666;-76
2023/03/02 02:09:46;;;;;;;43.33;24.83;;;;;-2.30;93867.00;;;;7390021;19;20154;-75
2023/03/02 02:12:22;;;;;;;49.27;26.43;;;;;-2.30;93875.00;;;;7391009;19;20183;-76
2023/03/02 02:14:59;;;;;;;41.53;24.57;;;;;-2.40;93872.00;;;;7392076;19;20155;-77
2023/03/02 02:17:35;;;;;;;43.07;25.83;;;;;-2.40;93877.00;;;;7389809;19;20193;-76
2023/03/02 02:20:34;;;;;;;45.73;25.50;;;;;-2.40;93876.00;;;;7392312;19;20137;-79
2023/03/02 02:23:33;;;;;;;47.03;25.03;;;;;-2.50;93865.00;;;;7393112;19;20491;-75
2023/03/02 02:26:06;;;;;;;53.93;26.97;;;;;-2.60;93861.00;;;;7391170;19;20140;-75
2023/03/02 02:28:47;;;;;;;49.17;26.40;;;;;-2.50;93856.00;;;;7392400;19;20705;-77
2023/03/02 02:31:22;;;;;;;48.57;25.33;;;;;-2.50;93850.00;;;;7391231;19;20636;-78
2023/03/02 02:34:02;;;;;;;50.17;27.30;;;;;-2.50;93851.00;;;;7391538;19;20144;-76
2023/03/02 02:36:41;;;;;;;54.87;26.53;;;;;-2.70;93851.00;;;;7390741;19;20519;-76
2023/03/02 02:39:28;;;;;;;47.53;26.93;;;;;-2.70;93848.00;;;;7391351;19;20787;-76
2023/03/02 02:42:11;;;;;;;46.07;26.07;;;;;-2.80;93851.00;;;;7388855;19;20140;-75
2023/03/02 02:44:46;;;;;;;51.50;26.43;;;;;-2.80;93853.00;;;;7390373;19;20123;-76
2023/03/02 02:47:28;;;;;;;49.63;27.50;;;;;-2.70;93846.00;;;;7387192;19;20930;-75
2023/03/02 02:50:02;;;;;;;47.30;26.37;;;;;-2.70;93846.00;;;;7385360;19;20765;-75
2023/03/02 02:52:45;;;;;;;53.93;29.43;;;;;-2.70;93839.00;;;;7390734;19;20155;-75
2023/03/02 02:55:20;;;;;;;49.37;26.40;;;;;-2.80;93813.00;;;;7390076;19;20147;-75
2023/03/02 02:57:57;;;;;;;51.07;27.17;;;;;-2.80;93851.00;;;;7391739;19;20131;-76
2023/03/02 03:00:26;;;;;;;53.33;27.93;;;;;-2.90;93848.00;;;;7389672;19;20145;-76
2023/03/02 03:03:28;;;;;;;54.93;29.27;;;;;-2.80;93843.00;;;;7388437;19;20188;-76
2023/03/02 03:05:57;;;;;;;54.13;28.53;;;;;-2.80;93845.00;;;;7388977;19;20141;-76
2023/03/02 03:08:44;;;;;;;52.60;28.27;;;;;-3.00;93844.00;;;;7388954;19;20171;-75
2023/03/02 03:11:23;;;;;;;55.53;29.63;;;;;-3.10;93838.00;;;;7385452;19;20147;-76
2023/03/02 03:14:08;;;;;;;50.60;28.17;;;;;-3.00;93838.00;;;;7388738;19;20159;-76
2023/03/02 03:16:37;;;;;;;53.67;29.00;;;;;-2.90;93835.00;;;;7388445;19;20162;-76
2023/03/02 03:19:18;;;;;;;51.60;29.07;;;;;-2.90;93832.00;;;;7389592;19;20880;-76
2023/03/02 03:21:48;;;;;;;53.13;29.10;;;;;-2.90;93833.00;;;;7391085;19;20131;-75
2023/03/02 03:24:26;;;;;;;58.93;28.53;;;;;-3.00;93836.00;;;;7389485;19;20150;-76
2023/03/02 03:26:54;;;;;;;54.83;28.43;;;;;-3.10;93845.00;;;;7387986;19;20202;-76
2023/03/02 03:29:29;;;;;;;55.23;28.53;;;;;-3.10;93848.00;;;;7389321;19;20142;-76
2023/03/02 03:31:58;;;;;;;55.03;29.00;;;;;-3.10;93847.00;;;;7389213;19;20266;-76
2023/03/02 03:34:39;;;;;;;53.90;29.97;;;;;-3.10;93836.00;;;;7388786;19;20190;-77
2023/03/02 03:37:09;;;;;;;57.87;31.10;;;;;-2.90;93835.00;;;;7388173;19;20162;-76
2023/03/02 03:39:44;;;;;;;57.13;30.37;;;;;-3.10;93836.00;;;;7388630;19;20579;-76
2023/03/02 03:42:12;;;;;;;55.27;28.83;;;;;-3.00;93828.00;;;;7388841;19;20215;-76
2023/03/02 03:44:46;;;;;;;60.30;30.67;;;;;-3.10;93828.00;;;;7390037;19;20123;-77
2023/03/02 03:47:20;;;;;;;56.43;30.73;;;;;-3.30;93829.00;;;;7381748;19;20150;-75
2023/03/02 03:49:55;;;;;;;57.70;31.07;;;;;-3.20;93836.00;;;;7388994;19;20736;-75
2023/03/02 03:52:31;;;;;;;58.67;30.83;;;;;-3.30;93834.00;;;;7387277;19;20603;-76
2023/03/02 03:55:06;;;;;;;59.33;30.33;;;;;-3.30;93834.00;;;;7389634;19;20138;-77
2023/03/02 03:57:41;;;;;;;60.97;30.80;;;;;-3.20;93844.00;;;;7386553;19;20969;-76
2023/03/02 04:00:17;;;;;;;64.77;32.00;;;;;-3.10;93847.00;;;;7388493;19;20174;-77
2023/03/02 04:02:44;;;;;;;62.27;32.30;;;;;-3.20;93848.00;;;;7387589;19;20186;-75
2023/03/02 04:05:18;;;;;;;60.43;32.20;;;;;-3.30;93849.00;;;;7388524;19;20167;-76
2023/03/02 04:07:46;;;;;;;62.67;29.97;;;;;-3.20;93844.00;;;;7387842;19;20678;-76
2023/03/02 04:10:20;;;;;;;67.37;33.57;;;;;-3.20;93853.00;;;;7389569;19;20144;-75
2023/03/02 04:12:54;;;;;;;54.30;30.30;;;;;-3.20;93848.00;;;;7389557;19;20562;-75
2023/03/02 04:15:24;;;;;;;68.60;33.27;;;;;-3.30;93850.00;;;;7385621;19;20124;-79
2023/03/02 04:17:58;;;;;;;62.20;31.60;;;;;-3.20;93851.00;;;;7390395;19;20130;-76
2023/03/02 04:20:34;;;;;;;59.27;31.17;;;;;-3.20;93850.00;;;;7388414;19;20157;-76
2023/03/02 04:23:08;;;;;;;61.87;31.83;;;;;-3.30;93847.00;;;;7389182;19;20123;-77
2023/03/02 04:25:36;;;;;;;61.20;30.87;;;;;-3.20;93852.00;;;;7388474;19;20190;-76
2023/03/02 04:28:11;;;;;;;63.07;31.57;;;;;-3.20;93852.00;;;;7389398;19;20611;-76
2023/03/02 04:30:38;;;;;;;59.30;32.03;;;;;-3.20;93854.00;;;;7390564;19;20732;-75
2023/03/02 04:33:12;;;;;;;61.53;32.30;;;;;-3.30;93851.00;;;;7394861;19;20155;-75
2023/03/02 04:35:46;;;;;;;60.67;31.57;;;;;-3.40;93850.00;;;;7390641;19;20155;-76
2023/03/02 04:38:14;;;;;;;61.50;30.53;;;;;-3.30;93853.00;;;;7397482;19;20584;-75
2023/03/02 04:40:50;;;;;;;63.37;32.87;;;;;-3.40;93855.00;;;;7394825;19;20133;-76
2023/03/02 04:43:24;;;;;;;65.43;31.87;;;;;-3.50;93866.00;;;;7395625;19;20593;-76
2023/03/02 04:45:59;;;;;;;59.63;31.67;;;;;-3.60;93855.00;;;;7389359;19;20140;-76
2023/03/02 04:48:33;;;;;;;64.10;32.67;;;;;-3.60;93851.00;;;;7387713;19;20129;-75
2023/03/02 04:51:24;;;;;;;57.97;30.63;;;;;-3.60;93856.00;;;;7391247;19;20197;-76
2023/03/02 04:54:02;;;;;;;70.80;33.60;;;;;-3.80;93852.00;;;;7393306;19;20127;-75
2023/03/02 04:56:31;;;;;;;58.97;31.23;;;;;-3.90;93842.00;;;;7388161;19;20178;-76
2023/03/02 04:59:05;;;;;;;57.37;31.67;;;;;-4.00;93850.00;;;;7393218;19;20147;-76
2023/03/02 05:01:40;;;;;;;59.70;31.67;;;;;-4.00;93843.00;;;;7390382;19;20148;-75
2023/03/02 05:04:15;;;;;;;70.33;32.43;;;;;-4.20;93851.00;;;;7391940;19;20823;-76
2023/03/02 05:06:43;;;;;;;60.67;31.70;;;;;-4.20;93848.00;;;;7391489;19;20146;-77
2023/03/02 05:09:17;;;;;;;61.13;30.90;;;;;-4.20;93850.00;;;;7390541;19;20161;-76
2023/03/02 05:11:45;;;;;;;63.50;32.13;;;;;-4.20;93844.00;;;;7389571;19;20156;-76
2023/03/02 05:14:19;;;;;;;63.97;31.47;;;;;-4.00;93838.00;;;;7391314;19;20140;-75
2023/03/02 05:16:53;;;;;;;68.23;30.03;;;;;-3.90;93844.00;;;;7388127;19;20131;-77
2023/03/02 05:19:23;;;;;;;65.87;34.17;;;;;-3.80;93857.00;;;;7391978;19;20583;-76
2023/03/02 05:21:57;;;;;;;68.13;32.00;;;;;-3.90;93852.00;;;;7392555;19;20143;-77
2023/03/02 05:24:33;;;;;;;68.17;31.37;;;;;-3.90;93854.00;;;;7391764;19;20470;-76
2023/03/02 05:27:07;;;;;;;64.57;31.73;;;;;-3.80;93854.00;;;;7389649;19;20515;-75
2023/03/02 05:29:37;;;;;;;71.97;33.73;;;;;-3.80;93840.00;;;;7389495;19;20612;-76
2023/03/02 05:32:11;;;;;;;71.93;33.30;;;;;-3.70;93847.00;;;;7388098;19;20141;-75
2023/03/02 05:34:39;;;;;;;65.43;32.43;;;;;-3.60;93836.00;;;;7389509;19;20133;-76
2023/03/02 05:37:13;;;;;;;76.63;35.10;;;;;-3.40;93841.00;;;;7387848;19;20971;-75
2023/03/02 05:39:47;;;;;;;74.90;35.43;;;;;-3.30;93838.00;;;;7392221;19;20556;-77
2023/03/02 05:42:21;;;;;;;72.03;35.80;;;;;-3.10;93843.00;;;;7389568;19;20648;-75
2023/03/02 05:44:49;;;;;;;73.73;35.93;;;;;-3.00;93844.00;;;;7387125;19;20234;-75
2023/03/02 05:47:23;;;;;;;72.70;35.97;;;;;-3.00;93835.00;;;;7383595;19;20656;-75
2023/03/02 05:49:58;;;;;;;68.87;34.77;;;;;-2.80;93834.00;;;;7389041;19;20155;-76
2023/03/02 05:52:39;;;;;;;66.00;33.30;;;;;-2.90;93847.00;;;;7387087;19;20174;-76
2023/03/02 05:55:14;;;;;;;68.77;33.93;;;;;-2.90;93842.00;;;;7389027;19;20164;-76
2023/03/02 05:57:48;;;;;;;67.87;33.73;;;;;-2.80;93841.00;;;;7386681;19;20242;-76
2023/03/02 06:00:24;;;;;;;63.30;31.47;;;;;-2.80;93847.00;;;;7385206;19;20163;-75
2023/03/02 06:02:58;;;;;;;65.83;32.30;;;;;-2.80;93844.00;;;;7388010;19;20160;-75
2023/03/02 06:05:34;;;;;;;67.33;33.17;;;;;-2.80;93851.00;;;;7390926;19;20228;-75
2023/03/02 06:08:01;;;;;;;69.77;33.17;;;;;-2.60;93847.00;;;;7387904;19;20915;-77
2023/03/02 06:10:35;;;;;;;67.93;33.60;;;;;-2.60;93853.00;;;;7389512;19;20807;-77
2023/03/02 06:13:03;;;;;;;62.67;32.73;;;;;-2.50;93846.00;;;;7391519;19;20140;-76
2023/03/02 06:15:39;;;;;;;66.63;33.47;;;;;-2.50;93848.00;;;;7389973;19;20139;-76
2023/03/02 06:18:13;;;;;;;68.97;33.63;;;;;-2.50;93855.00;;;;7394038;19;20128;-77
2023/03/02 06:20:48;;;;;;;65.87;31.57;;;;;-2.30;93862.00;;;;7390398;19;20146;-77
2023/03/02 06:23:22;;;;;;;61.03;31.57;;;;;-2.30;93862.00;;;;7389162;19;20574;-76
2023/03/02 06:25:50;;;;;;;61.87;31.93;;;;;-2.20;93861.00;;;;7389904;19;20128;-76
2023/03/02 06:28:18;;;;;;;67.77;32.17;;;;;-2.30;93868.00;;;;7388372;19;20131;-77
2023/03/02 06:30:52;;;;;;;60.47;30.23;;;;;-2.10;93870.00;;;;7390654;19;20144;-77
2023/03/02 06:33:20;;;;;;;60.97;31.07;;;;;-2.10;93876.00;;;;7389222;19;20132;-76
2023/03/02 06:35:54;;;;;;;58.13;30.47;;;;;-2.00;93868.00;;;;7389925;19;20136;-77
2023/03/02 06:38:22;;;;;;;60.53;30.77;;;;;-1.90;93867.00;;;;7393142;19;20494;-75
2023/03/02 06:40:56;;;;;;;58.30;30.70;;;;;-1.90;93870.00;;;;7389135;19;20154;-77
2023/03/02 06:43:23;;;;;;;54.73;29.03;;;;;-1.90;93870.00;;;;7393215;19;20418;-77
2023/03/02 06:45:59;;;;;;;58.40;30.23;;;;;-1.90;93878.00;;;;7390846;19;20596;-77
2023/03/02 06:48:27;;;;;;;53.97;30.17;;;;;-1.80;93880.00;;;;7394139;19;20156;-77
2023/03/02 06:51:08;;;;;;;52.10;28.50;;;;;-1.70;93876.00;;;;7390757;19;20160;-76
2023/03/02 06:53:42;;;;;;;52.23;28.10;;;;;-1.60;93878.00;;;;7385308;19;20155;-76
2023/03/02 06:56:16;;;;;;;55.70;29.50;;;;;-1.70;93885.00;;;;7387482;19;20132;-76
2023/03/02 06:58:44;;;;;;;55.03;27.50;;;;;-1.70;93880.00;;;;7388744;19;20152;-76
2023/03/02 07:01:17;;;;;;;49.33;28.63;;;;;-1.70;93878.00;;;;7392058;19;20207;-77
2023/03/02 07:03:54;;;;;;;47.20;26.80;;;;;-1.60;93883.00;;;;7390314;19;20165;-76
2023/03/02 07:06:29;;;;;;;48.37;26.90;;;;;-1.60;93891.00;;;;7392013;19;20156;-76
2023/03/02 07:09:04;;;;;;;53.07;28.90;;;;;-1.50;93889.00;;;;7389502;19;20144;-77
2023/03/02 07:11:31;;;;;;;49.87;27.60;;;;;-1.40;93886.00;;;;7390967;19;20592;-77
2023/03/02 07:14:06;;;;;;;49.83;26.73;;;;;-1.20;93892.00;;;;7389384;19;22147;-79
2023/03/02 07:16:34;;;;;;;47.57;27.03;;;;;-1.20;93890.00;;;;7387023;19;20142;-77
2023/03/02 07:19:12;;;;;;;46.23;25.63;;;;;-1.10;93885.00;;;;7389939;19;20148;-76
2023/03/02 07:21:47;;;;;;;46.50;25.77;;;;;-1.20;93895.00;;;;7388134;19;20148;-77
2023/03/02 07:24:21;;;;;;;46.77;25.37;;;;;-1.10;93886.00;;;;7389655;19;20219;-76
2023/03/02 07:26:49;;;;;;;46.10;24.47;;;;;-1.00;93902.00;;;;7387927;19;20612;-77
2023/03/02 07:29:24;;;;;;;48.70;25.93;;;;;-0.90;93898.00;;;;7386146;19;20157;-76
2023/03/02 07:32:01;;;;;;;39.07;24.40;;;;;-0.80;93808.00;;;;7392325;19;20139;-75
2023/03/02 07:34:38;;;;;;;41.73;23.80;;;;;-0.90;93895.00;;;;7388688;19;20180;-77
2023/03/02 07:37:06;;;;;;;38.97;22.87;;;;;-0.90;93907.00;;;;7386892;19;20136;-76
2023/03/02 07:39:40;;;;;;;41.63;23.90;;;;;-0.70;93895.00;;;;7386372;19;20153;-77
2023/03/02 07:42:10;;;;;;;42.90;23.47;;;;;-0.80;93908.00;;;;7387363;19;20590;-76
2023/03/02 07:44:44;;;;;;;44.97;23.87;;;;;-0.80;93910.00;;;;7388231;19;20497;-79
2023/03/02 07:47:18;;;;;;;38.83;23.43;;;;;-0.60;93899.00;;;;7385190;19;20193;-76
2023/03/02 07:49:46;;;;;;;39.70;22.97;;;;;-0.70;93901.00;;;;7388660;19;20148;-77
2023/03/02 07:52:27;;;;;;;38.40;22.50;;;;;-0.60;93905.00;;;;7389458;19;20156;-77
2023/03/02 07:54:55;;;;;;;42.83;23.07;;;;;-0.60;93915.00;;;;7389996;19;20133;-76
2023/03/02 07:57:29;;;;;;;40.30;21.90;;;;;-0.60;93908.00;;;;7387202;19;20457;-76
2023/03/02 08:00:04;;;;;;;36.70;22.20;;;;;-0.50;93908.00;;;;7385267;19;20145;-75
2023/03/02 08:02:39;;;;;;;40.13;22.73;;;;;-0.50;93912.00;;;;7386174;19;20163;-77
2023/03/02 08:05:13;;;;;;;35.90;21.43;;;;;-0.70;93901.00;;;;7389610;19;20152;-76
2023/03/02 08:07:47;;;;;;;43.03;21.47;;;;;-0.70;93920.00;;;;7394907;19;20523;-77
2023/03/02 08:10:15;;;;;;;38.93;21.37;;;;;-0.50;93919.00;;;;7394763;19;20224;-75
2023/03/02 08:12:49;;;;;;;39.33;21.53;;;;;-0.40;93925.00;;;;7394854;19;20506;-76
2023/03/02 08:15:23;;;;;;;40.27;21.13;;;;;-0.50;93933.00;;;;7389615;19;20652;-76
2023/03/02 08:17:57;;;;;;;36.63;21.70;;;;;-0.50;93916.00;;;;7397915;19;20588;-76
2023/03/02 08:20:31;;;;;;;35.60;21.20;;;;;-0.40;93925.00;;;;7392836;19;20199;-78
2023/03/02 08:22:58;;;;;;;35.87;21.13;;;;;-0.20;93927.00;;;;7395623;19;20606;-78
2023/03/02 08:25:32;;;;;;;37.57;21.30;;;;;-0.50;93924.00;;;;7393007;19;20133;-76
2023/03/02 08:28:06;;;;;;;34.70;20.53;;;;;-0.50;93935.00;;;;7396070;19;20124;-78
2023/03/02 08:30:42;;;;;;;36.00;21.03;;;;;-0.50;93927.00;;;;7399188;19;20591;-78
2023/03/02 08:33:16;;;;;;;31.80;20.10;;;;;-0.50;93929.00;;;;7396527;19;20216;-76
2023/03/02 08:36:03;;;;;;;35.87;19.87;;;;;-0.40;93933.00;;;;7389541;19;20149;-75
2023/03/02 08:38:38;;;;;;;34.90;20.20;;;;;-0.40;93938.00;;;;7391678;19;20615;-76
2023/03/02 08:41:09;;;;;;;35.47;20.43;;;;;-0.40;93935.00;;;;7396973;19;20138;-76
2023/03/02 08:43:43;;;;;;;37.50;21.07;;;;;-0.20;93939.00;;;;7391795;19;20152;-76
2023/03/02 08:46:12;;;;;;;36.13;20.67;;;;;-0.10;93937.00;;;;7392267;19;20176;-79
2023/03/02 08:48:48;;;;;;;39.57;21.10;;;;;-0.10;93931.00;;;;7396380;19;20527;-75
2023/03/02 08:51:35;;;;;;;32.10;18.90;;;;;0.20;93933.00;;;;7391393;19;20158;-78
2023/03/02 08:54:11;;;;;;;33.30;20.70;;;;;0.40;93927.00;;;;7395486;19;20741;-76
2023/03/02 08:56:44;;;;;;;36.27;19.87;;;;;0.60;93926.00;;;;7389630;19;20156;-76
2023/03/02 08:59:20;;;;;;;36.53;22.83;;;;;0.60;93933.00;;;;7395064;19;20185;-76
2023/03/02 09:01:54;;;;;;;34.87;20.07;;;;;0.70;93929.00;;;;7392901;19;20156;-79
2023/03/02 09:04:28;;;;;;;34.97;21.17;;;;;0.70;93932.00;;;;7396658;19;20125;-77
2023/03/02 09:06:56;;;;;;;36.53;20.97;;;;;0.70;93920.00;;;;7394361;19;20626;-76
2023/03/02 09:09:30;;;;;;;33.33;19.57;;;;;1.00;93934.00;;;;7396486;19;20156;-77
2023/03/02 09:11:58;;;;;;;34.00;20.07;;;;;1.20;93925.00;;;;7394573;19;20615;-75
2023/03/02 09:14:32;;;;;;;34.10;20.60;;;;;1.60;93933.00;;;;7391601;19;20139;-77
2023/03/02 09:17:06;;;;;;;33.13;19.57;;;;;1.70;93921.00;;;;7389378;19;20511;-78
2023/03/02 09:19:41;;;;;;;32.87;19.30;;;;;2.10;93913.00;;;;7394996;19;20161;-75
2023/03/02 09:22:17;;;;;;;40.13;22.60;;;;;2.10;93908.00;;;;7394784;19;20143;-76
2023/03/02 09:24:45;;;;;;;31.33;20.03;;;;;2.10;93922.00;;;;7394690;19;20156;-75
2023/03/02 09:27:19;;;;;;;51.83;29.93;;;;;2.50;93923.00;;;;7395334;19;20136;-75
2023/03/02 09:29:47;;;;;;;46.83;25.60;;;;;2.40;93926.00;;;;7397512;19;20133;-74
2023/03/02 09:32:23;;;;;;;33.33;20.00;;;;;2.60;93921.00;;;;7391809;19;20395;-76
2023/03/02 09:34:51;;;;;;;31.27;18.33;;;;;2.80;93922.00;;;;7392044;19;20145;-77
2023/03/02 09:37:26;;;;;;;30.63;18.67;;;;;3.00;93922.00;;;;7389773;19;20220;-75
2023/03/02 09:40:00;;;;;;;29.77;18.43;;;;;2.90;93933.00;;;;7391481;19;20385;-75
2023/03/02 09:42:43;;;;;;;29.40;18.10;;;;;2.80;93928.00;;;;7394861;19;20185;-77
2023/03/02 09:45:33;;;;;;;30.47;18.57;;;;;3.30;93932.00;;;;7396156;19;20147;-77
2023/03/02 09:48:30;;;;;;;32.43;18.80;;;;;3.50;93939.00;;;;7395300;19;20160;-74
2023/03/02 09:51:21;;;;;;;35.30;19.57;;;;;3.70;93927.00;;;;7394868;19;20611;-77
2023/03/02 09:54:07;;;;;;;31.30;19.37;;;;;3.50;93931.00;;;;7393671;19;20137;-77
2023/03/02 09:56:48;;;;;;;33.63;19.43;;;;;3.60;93931.00;;;;7394142;19;20207;-76
2023/03/02 09:59:38;;;;;;;30.87;19.10;;;;;4.00;93928.00;;;;7395903;19;20607;-78
2023/03/02 10:02:34;;;;;;;28.60;18.60;;;;;4.20;93936.00;;;;7394424;19;20220;-77
2023/03/02 10:05:16;;;;;;;28.37;18.67;;;;;3.80;93934.00;;;;7395740;19;20623;-77
2023/03/02 10:07:44;;;;;;;28.77;18.27;;;;;3.90;93938.00;;;;7388933;19;20166;-77
2023/03/02 10:10:43;;;;;;;28.20;19.00;;;;;3.80;93950.00;;;;7391773;19;20152;-76
2023/03/02 10:13:17;;;;;;;30.43;19.60;;;;;4.20;93949.00;;;;7394601;19;20136;-76
2023/03/02 10:15:57;;;;;;;33.30;20.00;;;;;4.40;93950.00;;;;7390832;19;20153;-77
2023/03/02 10:18:38;;;;;;;29.43;19.80;;;;;4.30;93946.00;;;;7393550;19;20143;-77
2023/03/02 10:21:39;;;;;;;32.90;19.07;;;;;4.10;93950.00;;;;7395813;19;20152;-77
2023/03/02 10:24:31;;;;;;;33.00;19.47;;;;;4.10;93953.00;;;;7390459;19;20623;-76
2023/03/02 10:27:15;;;;;;;31.63;19.23;;;;;3.90;93953.00;;;;7390590;19;20141;-76
2023/03/02 10:30:16;;;;;;;31.57;20.00;;;;;4.10;93957.00;;;;7392784;19;20129;-77
2023/03/02 10:32:53;;;;;;;30.17;18.13;;;;;4.30;93960.00;;;;7393230;19;20136;-76
2023/03/02 10:35:31;;;;;;;34.23;20.10;;;;;4.60;93953.00;;;;7389367;19;20209;-78
2023/03/02 10:38:15;;;;;;;31.73;19.17;;;;;5.00;93952.00;;;;7393524;19;20950;-78
2023/03/02 10:40:58;;;;;;;30.10;19.37;;;;;5.00;93963.00;;;;7386433;19;20159;-76
2023/03/02 10:43:47;;;;;;;31.77;19.27;;;;;5.20;93963.00;;;;7393485;19;20196;-77
2023/03/02 10:46:15;;;;;;;31.93;19.77;;;;;4.90;93962.00;;;;7390029;19;20133;-78
2023/03/02 10:48:59;;;;;;;33.53;19.00;;;;;4.50;93974.00;;;;7389970;19;20124;-78
2023/03/02 10:51:42;;;;;;;31.23;18.07;;;;;4.10;93973.00;;;;7387571;19;20179;-78
2023/03/02 10:54:22;;;;;;;30.50;20.07;;;;;4.20;93970.00;;;;7393076;19;20137;-79
2023/03/02 10:56:52;;;;;;;28.73;18.00;;;;;4.20;93971.00;;;;7387672;19;20473;-78
2023/03/02 10:59:43;;;;;;;31.70;20.50;;;;;4.20;93974.00;;;;7390598;19;20155;-78
2023/03/02 11:02:22;;;;;;;28.77;18.57;;;;;4.20;93968.00;;;;7388968;19;20152;-78
2023/03/02 11:05:12;;;;;;;30.23;19.03;;;;;4.30;93967.00;;;;7392752;19;20608;-79
2023/03/02 11:08:04;;;;;;;32.67;20.17;;;;;4.40;93967.00;;;;7389110;19;20141;-77
2023/03/02 11:10:51;;;;;;;27.97;18.27;;;;;4.50;93963.00;;;;7388494;19;20137;-78
2023/03/02 11:13:36;;;;;;;32.40;19.10;;;;;4.80;93961.00;;;;7389379;19;20152;-77
2023/03/02 11:16:16;;;;;;;31.30;19.50;;;;;5.00;93968.00;;;;7389676;19;20141;-78
2023/03/02 11:18:58;;;;;;;36.20;21.57;;;;;5.00;93970.00;;;;7391190;19;20679;-78
2023/03/02 11:21:55;;;;;;;27.40;19.10;;;;;5.20;93979.00;;;;7389318;19;20132;-78
2023/03/02 11:24:52;;;;;;;27.90;19.10;;;;;5.30;93975.00;;;;7389868;19;20177;-78
2023/03/02 11:27:26;;;;;;;28.60;19.40;;;;;5.40;93974.00;;;;7391442;19;20129;-76
2023/03/02 11:30:06;;;;;;;30.67;19.77;;;;;5.00;93978.00;;;;7389945;19;20507;-78
2023/03/02 11:32:52;;;;;;;31.17;19.83;;;;;5.50;93979.00;;;;7392077;19;20152;-78
2023/03/02 11:35:46;;;;;;;28.20;18.07;;;;;5.70;93978.00;;;;7390456;19;20145;-78
2023/03/02 11:38:31;;;;;;;32.20;19.87;;;;;5.50;93987.00;;;;7390565;19;20169;-78
2023/03/02 11:41:31;;;;;;;30.13;20.10;;;;;5.50;93979.00;;;;7388035;19;20479;-77
2023/03/02 11:44:08;;;;;;;30.63;20.17;;;;;5.50;93972.00;;;;7397440;19;20292;-78
2023/03/02 11:46:48;;;;;;;30.50;19.63;;;;;5.60;93981.00;;;;7397367;19;20148;-78
2023/03/02 11:49:31;;;;;;;28.77;18.23;;;;;6.00;93966.00;;;;7392547;19;20644;-77
2023/03/02 11:52:22;;;;;;;31.93;17.83;;;;;6.00;93971.00;;;;7396056;19;20172;-79
2023/03/02 11:54:59;;;;;;;27.27;18.53;;;;;5.70;93968.00;;;;7399872;19;20133;-78
2023/03/02 11:57:35;;;;;;;29.07;19.13;;;;;5.30;93977.00;;;;7393381;19;20148;-78
2023/03/02 12:00:36;;;;;;;30.30;19.87;;;;;5.30;93973.00;;;;7399652;19;20136;-79
2023/03/02 12:03:16;;;;;;;27.97;18.73;;;;;5.40;93973.00;;;;7395112;19;20642;-77
2023/03/02 12:05:50;;;;;;;25.53;17.73;;;;;5.60;93976.00;;;;7395756;19;20156;-77
2023/03/02 12:08:30;;;;;;;28.67;17.63;;;;;5.80;93973.00;;;;7395744;19;20140;-78
2023/03/02 12:11:03;;;;;;;27.50;17.80;;;;;5.20;93985.00;;;;7398225;19;20160;-78
2023/03/02 12:13:39;;;;;;;28.80;19.00;;;;;5.40;93991.00;;;;7400249;19;20677;-77
2023/03/02 12:16:32;;;;;;;28.57;18.43;;;;;5.70;93986.00;;;;7395410;19;20148;-77
2023/03/02 12:19:16;;;;;;;27.87;19.07;;;;;5.60;93988.00;;;;7398922;19;20489;-77
2023/03/02 12:22:05;;;;;;;31.50;17.87;;;;;5.70;93989.00;;;;7397530;19;20472;-77
2023/03/02 12:24:43;;;;;;;31.20;19.30;;;;;5.70;93984.00;;;;7396315;19;20148;-80
2023/03/02 12:27:24;;;;;;;29.47;19.57;;;;;5.60;93991.00;;;;7395973;19;20133;-78
2023/03/02 12:30:23;;;;;;;26.63;18.50;;;;;5.20;93991.00;;;;7397124;19;20152;-80
2023/03/02 12:33:04;;;;;;;27.10;17.90;;;;;5.40;93980.00;;;;7397462;19;20635;-77
2023/03/02 12:35:38;;;;;;;26.07;18.30;;;;;5.60;94004.00;;;;7394665;19;20204;-78
2023/03/02 12:38:30;;;;;;;34.10;19.30;;;;;5.00;93979.00;;;;7399135;19;20457;-78
2023/03/02 12:41:12;;;;;;;24.47;17.97;;;;;5.50;93988.00;;;;7397783;19;20492;-78
2023/03/02 12:44:18;;;;;;;27.20;18.13;;;;;5.00;93979.00;;;;7399013;19;20195;-79
2023/03/02 12:46:58;;;;;;;26.37;18.27;;;;;4.90;93981.00;;;;7395094;19;20635;-79